sensor_id;sensor_type;location;lat;lon;timestamp;pressure;altitude;pressure_sealevel;temperature;humidity
36190;BME280;22232;50.914;13.858;2023-05-22T00:00:07;97831.72;;;16.90;100.00
36190;BME280;22232;50.914;13.858;2023-05-22T00:02:38;97832.50;;;16.91;100.00
36190;BME280;22232;50.914;13.858;2023-05-22T00:05:11;97827.66;;;16.83;100.00
36190;BME280;22232;50.914;13.858;2023-05-22T00:07:40;97830.38;;;16.78;100.00
36190;BME280;22232;50.914;13.858;2023-05-22T00:10:10;97831.69;;;16.70;100.00
36190;BME280;22232;50.914;13.858;2023-05-22T00:12:37;97822.31;;;16.78;100.00
36190;BME280;22232;50.914;13.858;2023-05-22T00:15:05;97820.97;;;16.80;100.00
36190;BME280;22232;50.914;13.858;2023-05-22T00:17:33;97822.81;;;16.69;100.00
36190;BME280;22232;50.914;13.858;2023-05-22T00:20:02;97817.41;;;16.69;100.00
36190;BME280;22232;50.914;13.858;2023-05-22T00:22:32;97826.31;;;16.65;100.00
36190;BME280;22232;50.914;13.858;2023-05-22T00:25:04;97814.19;;;16.57;100.00
36190;BME280;22232;50.914;13.858;2023-05-22T00:27:32;97817.41;;;16.44;100.00
36190;BME280;22232;50.914;13.858;2023-05-22T00:30:00;97818.22;;;16.39;100.00
36190;BME280;22232;50.914;13.858;2023-05-22T00:32:29;97815.53;;;16.29;100.00
36190;BME280;22232;50.914;13.858;2023-05-22T00:34:56;97811.75;;;16.35;100.00
36190;BME280;22232;50.914;13.858;2023-05-22T00:37:24;97813.63;;;16.40;100.00
36190;BME280;22232;50.914;13.858;2023-05-22T00:39:52;97817.94;;;16.36;100.00
36190;BME280;22232;50.914;13.858;2023-05-22T00:42:19;97811.19;;;16.28;100.00
36190;BME280;22232;50.914;13.858;2023-05-22T00:44:47;97811.47;;;16.26;100.00
36190;BME280;22232;50.914;13.858;2023-05-22T00:47:15;97815.50;;;16.24;100.00
36190;BME280;22232;50.914;13.858;2023-05-22T00:49:43;97813.63;;;16.29;100.00
36190;BME280;22232;50.914;13.858;2023-05-22T00:52:11;97807.16;;;16.31;100.00
36190;BME280;22232;50.914;13.858;2023-05-22T00:54:41;97809.88;;;16.36;100.00
36190;BME280;22232;50.914;13.858;2023-05-22T00:57:09;97807.44;;;16.39;100.00
36190;BME280;22232;50.914;13.858;2023-05-22T00:59:38;97804.75;;;16.39;100.00
36190;BME280;22232;50.914;13.858;2023-05-22T01:02:05;97809.09;;;16.40;100.00
36190;BME280;22232;50.914;13.858;2023-05-22T01:04:33;97802.59;;;16.31;100.00
36190;BME280;22232;50.914;13.858;2023-05-22T01:07:01;97800.72;;;16.26;100.00
36190;BME280;22232;50.914;13.858;2023-05-22T01:09:29;97806.34;;;16.20;100.00
36190;BME280;22232;50.914;13.858;2023-05-22T01:17:50;97809.56;;;16.22;100.00
36190;BME280;22232;50.914;13.858;2023-05-22T01:20:31;97812.56;;;16.25;100.00
36190;BME280;22232;50.914;13.858;2023-05-22T01:23:14;97803.13;;;16.18;100.00
36190;BME280;22232;50.914;13.858;2023-05-22T01:31:16;97815.50;;;16.14;100.00
36190;BME280;22232;50.914;13.858;2023-05-22T01:33:54;97814.69;;;16.18;100.00
36190;BME280;22232;50.914;13.858;2023-05-22T01:36:26;97810.91;;;16.14;100.00
36190;BME280;22232;50.914;13.858;2023-05-22T01:38:55;97815.47;;;16.09;100.00
36190;BME280;22232;50.914;13.858;2023-05-22T01:41:27;97813.34;;;16.11;100.00
36190;BME280;22232;50.914;13.858;2023-05-22T01:43:55;97814.38;;;16.10;100.00
36190;BME280;22232;50.914;13.858;2023-05-22T01:46:27;97810.06;;;16.03;100.00
36190;BME280;22232;50.914;13.858;2023-05-22T01:48:56;97812.50;;;16.05;100.00
36190;BME280;22232;50.914;13.858;2023-05-22T01:54:50;97806.56;;;15.93;100.00
36190;BME280;22232;50.914;13.858;2023-05-22T01:57:45;97811.94;;;15.93;100.00
36190;BME280;22232;50.914;13.858;2023-05-22T02:00:14;97811.41;;;15.86;100.00
36190;BME280;22232;50.914;13.858;2023-05-22T02:02:48;97812.69;;;15.73;100.00
36190;BME280;22232;50.914;13.858;2023-05-22T02:05:19;97817.72;;;15.64;100.00
36190;BME280;22232;50.914;13.858;2023-05-22T02:07:49;97808.28;;;15.56;100.00
36190;BME280;22232;50.914;13.858;2023-05-22T02:10:19;97806.38;;;15.52;100.00
36190;BME280;22232;50.914;13.858;2023-05-22T02:12:48;97814.16;;;15.43;100.00
36190;BME280;22232;50.914;13.858;2023-05-22T02:15:16;97812.00;;;15.45;100.00
36190;BME280;22232;50.914;13.858;2023-05-22T02:17:43;97817.13;;;15.52;100.00
36190;BME280;22232;50.914;13.858;2023-05-22T02:20:13;97812.78;;;15.41;100.00
36190;BME280;22232;50.914;13.858;2023-05-22T02:22:45;97814.09;;;15.33;100.00
36190;BME280;22232;50.914;13.858;2023-05-22T02:25:14;97813.03;;;15.34;100.00
36190;BME280;22232;50.914;13.858;2023-05-22T02:27:47;97805.81;;;15.45;100.00
36190;BME280;22232;50.914;13.858;2023-05-22T02:30:16;97802.63;;;15.53;100.00
36190;BME280;22232;50.914;13.858;2023-05-22T02:32:47;97806.97;;;15.59;100.00
36190;BME280;22232;50.914;13.858;2023-05-22T02:35:15;97806.13;;;15.53;100.00
36190;BME280;22232;50.914;13.858;2023-05-22T02:37:44;97802.63;;;15.53;100.00
36190;BME280;22232;50.914;13.858;2023-05-22T02:40:12;97805.84;;;15.55;100.00
36190;BME280;22232;50.914;13.858;2023-05-22T02:42:41;97801.31;;;15.55;100.00
36190;BME280;22232;50.914;13.858;2023-05-22T02:45:10;97805.56;;;15.51;100.00
36190;BME280;22232;50.914;13.858;2023-05-22T02:47:37;97805.81;;;15.45;100.00
36190;BME280;22232;50.914;13.858;2023-05-22T02:50:06;97800.47;;;15.55;100.00
36190;BME280;22232;50.914;13.858;2023-05-22T02:52:34;97793.25;;;15.55;100.00
36190;BME280;22232;50.914;13.858;2023-05-22T02:55:03;97799.94;;;15.58;100.00
36190;BME280;22232;50.914;13.858;2023-05-22T02:57:31;97792.13;;;15.51;100.00
36190;BME280;22232;50.914;13.858;2023-05-22T02:59:59;97791.06;;;15.47;100.00
36190;BME280;22232;50.914;13.858;2023-05-22T03:02:28;97800.66;;;15.33;100.00
36190;BME280;22232;50.914;13.858;2023-05-22T03:04:58;97796.88;;;15.29;100.00
36190;BME280;22232;50.914;13.858;2023-05-22T03:07:26;97795.03;;;15.34;100.00
36190;BME280;22232;50.914;13.858;2023-05-22T03:09:56;97785.09;;;15.35;100.00
36190;BME280;22232;50.914;13.858;2023-05-22T03:12:23;97792.88;;;15.31;100.00
36190;BME280;22232;50.914;13.858;2023-05-22T03:14:51;97794.44;;;15.27;100.00
36190;BME280;22232;50.914;13.858;2023-05-22T03:17:18;97789.63;;;15.29;100.00
36190;BME280;22232;50.914;13.858;2023-05-22T03:19:46;97785.38;;;15.38;100.00
36190;BME280;22232;50.914;13.858;2023-05-22T03:22:14;97796.09;;;15.33;100.00
36190;BME280;22232;50.914;13.858;2023-05-22T03:24:41;97788.84;;;15.34;100.00
36190;BME280;22232;50.914;13.858;2023-05-22T03:27:13;97785.34;;;15.28;100.00
36190;BME280;22232;50.914;13.858;2023-05-22T03:29:42;97774.59;;;15.33;100.00
36190;BME280;22232;50.914;13.858;2023-05-22T03:32:10;97776.50;;;15.38;100.00
36190;BME280;22232;50.914;13.858;2023-05-22T03:34:38;97774.66;;;15.49;100.00
36190;BME280;22232;50.914;13.858;2023-05-22T03:37:08;97774.22;;;15.72;100.00
36190;BME280;22232;50.914;13.858;2023-05-22T03:39:36;97766.75;;;16.00;100.00
36190;BME280;22232;50.914;13.858;2023-05-22T03:42:25;97769.47;;;16.31;100.00
36190;BME280;22232;50.914;13.858;2023-05-22T03:44:53;97771.38;;;16.50;100.00
36190;BME280;22232;50.914;13.858;2023-05-22T03:47:21;97771.13;;;16.62;100.00
36190;BME280;22232;50.914;13.858;2023-05-22T03:49:49;97768.16;;;16.74;100.00
36190;BME280;22232;50.914;13.858;2023-05-22T03:52:16;97772.69;;;16.89;100.00
36190;BME280;22232;50.914;13.858;2023-05-22T03:54:44;97762.38;;;17.27;100.00
36190;BME280;22232;50.914;13.858;2023-05-22T03:57:11;97770.81;;;17.70;100.00
36190;BME280;22232;50.914;13.858;2023-05-22T03:59:40;97767.63;;;18.17;100.00
36190;BME280;22232;50.914;13.858;2023-05-22T04:02:08;97762.19;;;18.56;100.00
36190;BME280;22232;50.914;13.858;2023-05-22T04:04:39;97760.50;;;18.95;100.00
36190;BME280;22232;50.914;13.858;2023-05-22T04:07:07;97760.31;;;19.34;100.00
36190;BME280;22232;50.914;13.858;2023-05-22T04:09:35;97753.34;;;19.76;100.00
36190;BME280;22232;50.914;13.858;2023-05-22T04:12:03;97753.03;;;20.34;98.25
36190;BME280;22232;50.914;13.858;2023-05-22T04:14:30;97765.00;;;20.47;86.37
36190;BME280;22232;50.914;13.858;2023-05-22T04:16:58;97760.88;;;20.69;82.75
36190;BME280;22232;50.914;13.858;2023-05-22T04:19:27;97759.53;;;20.85;84.00
36190;BME280;22232;50.914;13.858;2023-05-22T04:21:57;97765.38;;;21.06;78.82
36190;BME280;22232;50.914;13.858;2023-05-22T04:24:24;97766.47;;;21.05;81.33
36190;BME280;22232;50.914;13.858;2023-05-22T04:26:53;97770.22;;;21.09;83.98
36190;BME280;22232;50.914;13.858;2023-05-22T04:29:22;97761.16;;;21.27;82.67
36190;BME280;22232;50.914;13.858;2023-05-22T04:31:50;97759.66;;;21.63;72.69
36190;BME280;22232;50.914;13.858;2023-05-22T04:34:20;97767.91;;;21.71;72.78
36190;BME280;22232;50.914;13.858;2023-05-22T04:36:49;97766.66;;;21.91;70.32
36190;BME280;22232;50.914;13.858;2023-05-22T04:39:17;97761.44;;;21.81;73.79
36190;BME280;22232;50.914;13.858;2023-05-22T04:41:44;97759.84;;;21.80;72.38
36190;BME280;22232;50.914;13.858;2023-05-22T04:44:12;97757.06;;;21.94;77.00
36190;BME280;22232;50.914;13.858;2023-05-22T04:46:40;97765.25;;;22.30;79.95
36190;BME280;22232;50.914;13.858;2023-05-22T04:49:08;97757.34;;;22.65;76.19
36190;BME280;22232;50.914;13.858;2023-05-22T04:51:36;97761.41;;;22.54;68.53
36190;BME280;22232;50.914;13.858;2023-05-22T04:54:05;97759.03;;;22.52;76.10
36190;BME280;22232;50.914;13.858;2023-05-22T04:56:32;97763.47;;;22.71;68.08
36190;BME280;22232;50.914;13.858;2023-05-22T04:59:04;97767.19;;;23.06;71.23
36190;BME280;22232;50.914;13.858;2023-05-22T05:01:35;97759.41;;;23.22;66.55
36190;BME280;22232;50.914;13.858;2023-05-22T05:04:04;97769.06;;;23.36;64.38
36190;BME280;22232;50.914;13.858;2023-05-22T05:06:32;97768.25;;;23.36;67.31
36190;BME280;22232;50.914;13.858;2023-05-22T05:09:03;97768.34;;;23.13;69.94
36190;BME280;22232;50.914;13.858;2023-05-22T05:11:30;97763.31;;;22.98;73.00
36190;BME280;22232;50.914;13.858;2023-05-22T05:13:58;97756.13;;;23.42;69.41
36190;BME280;22232;50.914;13.858;2023-05-22T05:16:25;97758.56;;;23.61;71.12
36190;BME280;22232;50.914;13.858;2023-05-22T05:18:56;97761.13;;;23.57;68.33
36190;BME280;22232;50.914;13.858;2023-05-22T05:21:23;97768.72;;;23.69;64.24
36190;BME280;22232;50.914;13.858;2023-05-22T05:23:57;97771.31;;;23.83;62.84
36190;BME280;22232;50.914;13.858;2023-05-22T05:26:25;97771.50;;;23.95;63.70
36190;BME280;22232;50.914;13.858;2023-05-22T05:28:53;97769.56;;;24.04;67.94
36190;BME280;22232;50.914;13.858;2023-05-22T05:31:28;97773.88;;;23.97;68.57
36190;BME280;22232;50.914;13.858;2023-05-22T05:34:19;97778.44;;;23.62;62.93
36190;BME280;22232;50.914;13.858;2023-05-22T05:36:56;97777.72;;;23.87;66.80
36190;BME280;22232;50.914;13.858;2023-05-22T05:39:25;97777.56;;;23.92;73.89
36190;BME280;22232;50.914;13.858;2023-05-22T05:41:52;97776.00;;;23.51;78.80
36190;BME280;22232;50.914;13.858;2023-05-22T05:44:20;97779.34;;;23.48;71.97
36190;BME280;22232;50.914;13.858;2023-05-22T05:46:48;97785.97;;;23.16;75.00
36190;BME280;22232;50.914;13.858;2023-05-22T05:49:18;97776.84;;;23.21;73.25
36190;BME280;22232;50.914;13.858;2023-05-22T05:51:46;97784.31;;;23.55;72.25
36190;BME280;22232;50.914;13.858;2023-05-22T05:54:15;97779.13;;;23.76;77.73
36190;BME280;22232;50.914;13.858;2023-05-22T05:56:44;97772.38;;;23.73;78.40
36190;BME280;22232;50.914;13.858;2023-05-22T05:59:12;97776.09;;;23.29;77.02
36190;BME280;22232;50.914;13.858;2023-05-22T06:01:58;97770.91;;;23.10;81.68
36190;BME280;22232;50.914;13.858;2023-05-22T06:04:30;97773.56;;;23.01;78.89
36190;BME280;22232;50.914;13.858;2023-05-22T06:06:57;97774.63;;;22.92;83.93
36190;BME280;22232;50.914;13.858;2023-05-22T06:09:38;97765.47;;;23.19;85.60
36190;BME280;22232;50.914;13.858;2023-05-22T06:12:19;97765.59;;;23.05;81.11
36190;BME280;22232;50.914;13.858;2023-05-22T06:14:47;97762.84;;;22.82;86.53
36190;BME280;22232;50.914;13.858;2023-05-22T06:17:15;97766.59;;;22.86;87.67
36190;BME280;22232;50.914;13.858;2023-05-22T06:19:44;97761.38;;;22.76;92.21
36190;BME280;22232;50.914;13.858;2023-05-22T06:22:13;97757.44;;;23.05;93.88
36190;BME280;22232;50.914;13.858;2023-05-22T06:24:43;97762.00;;;23.27;90.71
36190;BME280;22232;50.914;13.858;2023-05-22T06:27:15;97760.56;;;23.29;91.52
36190;BME280;22232;50.914;13.858;2023-05-22T06:29:43;97754.97;;;23.34;89.15
36190;BME280;22232;50.914;13.858;2023-05-22T06:32:11;97756.78;;;23.08;88.51
36190;BME280;22232;50.914;13.858;2023-05-22T06:34:43;97769.13;;;22.83;96.57
36190;BME280;22232;50.914;13.858;2023-05-22T06:37:12;97759.13;;;22.70;89.69
36190;BME280;22232;50.914;13.858;2023-05-22T06:39:42;97762.47;;;22.44;98.44
36190;BME280;22232;50.914;13.858;2023-05-22T06:42:15;97768.94;;;21.98;100.00
36190;BME280;22232;50.914;13.858;2023-05-22T06:45:03;97769.63;;;21.67;100.00
36190;BME280;22232;50.914;13.858;2023-05-22T06:47:39;97765.00;;;21.54;100.00
36190;BME280;22232;50.914;13.858;2023-05-22T06:50:08;97776.94;;;21.39;100.00
36190;BME280;22232;50.914;13.858;2023-05-22T06:52:36;97773.63;;;21.28;100.00
36190;BME280;22232;50.914;13.858;2023-05-22T06:55:08;97762.25;;;21.26;100.00
36190;BME280;22232;50.914;13.858;2023-05-22T06:57:48;97772.81;;;21.28;100.00
36190;BME280;22232;50.914;13.858;2023-05-22T07:00:17;97774.16;;;21.58;100.00
36190;BME280;22232;50.914;13.858;2023-05-22T07:03:01;97765.88;;;21.77;100.00
36190;BME280;22232;50.914;13.858;2023-05-22T07:05:39;97766.91;;;21.67;100.00
36190;BME280;22232;50.914;13.858;2023-05-22T07:08:06;97763.38;;;21.67;100.00
36190;BME280;22232;50.914;13.858;2023-05-22T07:10:35;97764.03;;;21.86;100.00
36190;BME280;22232;50.914;13.858;2023-05-22T07:13:02;97758.22;;;22.15;100.00
36190;BME280;22232;50.914;13.858;2023-05-22T07:15:31;97759.69;;;22.35;100.00
36190;BME280;22232;50.914;13.858;2023-05-22T07:18:02;97762.47;;;22.44;100.00
36190;BME280;22232;50.914;13.858;2023-05-22T07:20:30;97763.34;;;22.53;100.00
36190;BME280;22232;50.914;13.858;2023-05-22T07:23:14;97767.88;;;22.21;100.00
36190;BME280;22232;50.914;13.858;2023-05-22T07:25:42;97768.09;;;22.25;98.77
36190;BME280;22232;50.914;13.858;2023-05-22T07:28:11;97760.34;;;22.18;98.65
36190;BME280;22232;50.914;13.858;2023-05-22T07:30:50;97757.16;;;22.61;96.61
36190;BME280;22232;50.914;13.858;2023-05-22T07:33:18;97760.81;;;22.88;100.00
36190;BME280;22232;50.914;13.858;2023-05-22T07:35:45;97753.28;;;23.07;100.00
36190;BME280;22232;50.914;13.858;2023-05-22T07:38:13;97750.78;;;23.20;93.72
36190;BME280;22232;50.914;13.858;2023-05-22T07:40:48;97755.25;;;23.24;88.64
36190;BME280;22232;50.914;13.858;2023-05-22T07:43:16;97757.19;;;23.24;88.02
36190;BME280;22232;50.914;13.858;2023-05-22T07:45:45;97755.66;;;23.09;90.43
36190;BME280;22232;50.914;13.858;2023-05-22T07:48:16;97749.81;;;22.93;95.42
36190;BME280;22232;50.914;13.858;2023-05-22T07:50:44;97752.66;;;23.10;93.44
36190;BME280;22232;50.914;13.858;2023-05-22T07:53:13;97748.03;;;23.20;89.95
36190;BME280;22232;50.914;13.858;2023-05-22T07:55:44;97747.28;;;23.36;95.56
36190;BME280;22232;50.914;13.858;2023-05-22T07:58:13;97753.56;;;23.46;79.00
36190;BME280;22232;50.914;13.858;2023-05-22T08:00:42;97750.00;;;23.36;83.47
36190;BME280;22232;50.914;13.858;2023-05-22T08:03:10;97744.91;;;23.52;79.73
36190;BME280;22232;50.914;13.858;2023-05-22T08:09:02;97734.97;;;24.22;81.59
36190;BME280;22232;50.914;13.858;2023-05-22T08:11:31;97735.88;;;24.61;78.08
36190;BME280;22232;50.914;13.858;2023-05-22T08:14:00;97727.16;;;24.85;69.23
36190;BME280;22232;50.914;13.858;2023-05-22T08:16:28;97733.56;;;25.36;59.79
36190;BME280;22232;50.914;13.858;2023-05-22T08:18:57;97726.00;;;25.63;67.91
36190;BME280;22232;50.914;13.858;2023-05-22T08:21:24;97731.56;;;25.16;59.52
36190;BME280;22232;50.914;13.858;2023-05-22T08:23:52;97728.63;;;25.59;64.89
36190;BME280;22232;50.914;13.858;2023-05-22T08:26:19;97725.34;;;25.36;65.59
36190;BME280;22232;50.914;13.858;2023-05-22T08:28:47;97730.34;;;24.96;71.22
36190;BME280;22232;50.914;13.858;2023-05-22T08:31:15;97727.06;;;25.11;69.65
36190;BME280;22232;50.914;13.858;2023-05-22T08:33:42;97732.41;;;25.67;69.84
36190;BME280;22232;50.914;13.858;2023-05-22T08:36:10;97732.56;;;25.03;65.47
36190;BME280;22232;50.914;13.858;2023-05-22T08:38:38;97729.53;;;24.95;70.49
36190;BME280;22232;50.914;13.858;2023-05-22T08:41:06;97723.63;;;24.85;62.48
36190;BME280;22232;50.914;13.858;2023-05-22T08:43:34;97730.63;;;24.47;64.60
36190;BME280;22232;50.914;13.858;2023-05-22T08:46:03;97721.44;;;24.52;60.42
36190;BME280;22232;50.914;13.858;2023-05-22T08:48:32;97720.00;;;24.55;64.63
36190;BME280;22232;50.914;13.858;2023-05-22T08:51:03;97725.63;;;24.41;64.17
36190;BME280;22232;50.914;13.858;2023-05-22T08:53:35;97726.13;;;24.17;61.05
36190;BME280;22232;50.914;13.858;2023-05-22T08:56:04;97721.00;;;24.33;65.63
36190;BME280;22232;50.914;13.858;2023-05-22T08:58:36;97727.72;;;24.09;68.51
36190;BME280;22232;50.914;13.858;2023-05-22T09:01:04;97718.91;;;23.77;64.66
36190;BME280;22232;50.914;13.858;2023-05-22T09:03:34;97731.28;;;23.35;66.79
36190;BME280;22232;50.914;13.858;2023-05-22T09:06:03;97721.13;;;23.18;67.59
36190;BME280;22232;50.914;13.858;2023-05-22T09:08:36;97731.28;;;23.35;62.91
36190;BME280;22232;50.914;13.858;2023-05-22T09:11:04;97732.69;;;23.72;64.12
36190;BME280;22232;50.914;13.858;2023-05-22T09:13:31;97716.66;;;23.88;57.29
36190;BME280;22232;50.914;13.858;2023-05-22T09:16:07;97719.41;;;23.97;54.50
36190;BME280;22232;50.914;13.858;2023-05-22T09:18:39;97718.75;;;24.17;57.75
36190;BME280;22232;50.914;13.858;2023-05-22T09:21:08;97718.59;;;23.96;52.00
36190;BME280;22232;50.914;13.858;2023-05-22T09:23:58;97715.72;;;23.84;53.90
36190;BME280;22232;50.914;13.858;2023-05-22T09:26:26;97712.47;;;23.65;55.03
36190;BME280;22232;50.914;13.858;2023-05-22T09:28:58;97725.72;;;23.57;51.66
36190;BME280;22232;50.914;13.858;2023-05-22T09:31:27;97709.44;;;23.75;50.49
36190;BME280;22232;50.914;13.858;2023-05-22T09:33:55;97716.19;;;23.77;53.60
36190;BME280;22232;50.914;13.858;2023-05-22T09:36:30;97708.81;;;23.87;50.40
36190;BME280;22232;50.914;13.858;2023-05-22T09:39:00;97707.06;;;24.17;58.76
36190;BME280;22232;50.914;13.858;2023-05-22T09:41:28;97716.19;;;24.12;51.17
36190;BME280;22232;50.914;13.858;2023-05-22T09:43:59;97718.13;;;24.12;49.69
36190;BME280;22232;50.914;13.858;2023-05-22T09:46:28;97715.84;;;24.31;48.07
36190;BME280;22232;50.914;13.858;2023-05-22T09:48:56;97717.63;;;24.44;46.90
36190;BME280;22232;50.914;13.858;2023-05-22T09:51:24;97712.81;;;24.97;51.28
36190;BME280;22232;50.914;13.858;2023-05-22T09:53:58;97719.50;;;25.47;46.62
36190;BME280;22232;50.914;13.858;2023-05-22T09:56:31;97707.44;;;25.56;45.99
36190;BME280;22232;50.914;13.858;2023-05-22T09:59:08;97700.69;;;25.24;46.48
36190;BME280;22232;50.914;13.858;2023-05-22T10:01:37;97716.13;;;25.50;48.57
36190;BME280;22232;50.914;13.858;2023-05-22T10:04:07;97700.91;;;25.70;47.84
36190;BME280;22232;50.914;13.858;2023-05-22T10:06:39;97693.31;;;25.75;47.54
36190;BME280;22232;50.914;13.858;2023-05-22T10:09:13;97699.31;;;25.69;49.88
36190;BME280;22232;50.914;13.858;2023-05-22T10:11:46;97694.97;;;25.68;58.19
36190;BME280;22232;50.914;13.858;2023-05-22T10:14:15;97686.69;;;25.26;62.21
36190;BME280;22232;50.914;13.858;2023-05-22T10:16:43;97693.66;;;24.67;57.20
36190;BME280;22232;50.914;13.858;2023-05-22T10:19:11;97696.31;;;24.93;64.20
36190;BME280;22232;50.914;13.858;2023-05-22T10:21:40;97692.97;;;24.88;63.22
36190;BME280;22232;50.914;13.858;2023-05-22T10:24:08;97680.59;;;24.90;63.11
36190;BME280;22232;50.914;13.858;2023-05-22T10:26:37;97683.94;;;24.96;67.32
36190;BME280;22232;50.914;13.858;2023-05-22T10:29:17;97681.19;;;25.05;58.80
36190;BME280;22232;50.914;13.858;2023-05-22T10:32:02;97669.03;;;25.74;56.08
36190;BME280;22232;50.914;13.858;2023-05-22T10:34:58;97690.44;;;25.51;54.82
36190;BME280;22232;50.914;13.858;2023-05-22T10:37:48;97672.25;;;25.76;54.68
36190;BME280;22232;50.914;13.858;2023-05-22T10:40:24;97689.59;;;25.50;56.45
36190;BME280;22232;50.914;13.858;2023-05-22T10:42:57;97674.09;;;25.04;59.77
36190;BME280;22232;50.914;13.858;2023-05-22T10:45:25;97678.59;;;25.08;55.09
36190;BME280;22232;50.914;13.858;2023-05-22T10:48:08;97671.81;;;25.23;56.48
36190;BME280;22232;50.914;13.858;2023-05-22T10:50:37;97669.16;;;24.97;55.76
36190;BME280;22232;50.914;13.858;2023-05-22T10:53:19;97669.81;;;24.94;59.48
36190;BME280;22232;50.914;13.858;2023-05-22T10:55:57;97668.41;;;24.32;58.23
36190;BME280;22232;50.914;13.858;2023-05-22T10:58:30;97667.44;;;24.28;62.48
36190;BME280;22232;50.914;13.858;2023-05-22T11:01:11;97657.16;;;24.25;60.58
36190;BME280;22232;50.914;13.858;2023-05-22T11:04:09;97672.41;;;24.43;60.86
36190;BME280;22232;50.914;13.858;2023-05-22T11:07:02;97669.97;;;24.59;56.40
36190;BME280;22232;50.914;13.858;2023-05-22T11:09:41;97660.25;;;24.79;60.53
36190;BME280;22232;50.914;13.858;2023-05-22T11:12:23;97656.81;;;25.00;57.68
36190;BME280;22232;50.914;13.858;2023-05-22T11:15:08;97655.47;;;25.14;59.61
36190;BME280;22232;50.914;13.858;2023-05-22T11:20:17;97662.63;;;25.28;53.79
36190;BME280;22232;50.914;13.858;2023-05-22T11:25:18;97636.00;;;25.67;55.66
36190;BME280;22232;50.914;13.858;2023-05-22T11:27:47;97646.97;;;25.37;53.99
36190;BME280;22232;50.914;13.858;2023-05-22T11:30:15;97642.50;;;25.03;52.91
36190;BME280;22232;50.914;13.858;2023-05-22T11:32:44;97644.19;;;24.86;53.36
36190;BME280;22232;50.914;13.858;2023-05-22T11:35:17;97643.91;;;24.79;51.15
36190;BME280;22232;50.914;13.858;2023-05-22T11:37:46;97649.75;;;24.99;56.35
36190;BME280;22232;50.914;13.858;2023-05-22T11:40:15;97642.59;;;24.85;57.14
36190;BME280;22232;50.914;13.858;2023-05-22T11:42:44;97650.00;;;24.76;53.94
36190;BME280;22232;50.914;13.858;2023-05-22T11:45:12;97643.28;;;24.65;53.59
36190;BME280;22232;50.914;13.858;2023-05-22T11:47:40;97652.00;;;24.58;53.55
36190;BME280;22232;50.914;13.858;2023-05-22T11:50:08;97642.75;;;24.42;54.80
36190;BME280;22232;50.914;13.858;2023-05-22T11:52:38;97627.03;;;24.77;60.40
36190;BME280;22232;50.914;13.858;2023-05-22T11:55:07;97620.38;;;24.66;53.88
36190;BME280;22232;50.914;13.858;2023-05-22T11:57:35;97625.03;;;24.65;54.44
36190;BME280;22232;50.914;13.858;2023-05-22T12:00:05;97625.56;;;24.41;52.78
36190;BME280;22232;50.914;13.858;2023-05-22T12:02:43;97628.94;;;24.47;55.91
36190;BME280;22232;50.914;13.858;2023-05-22T12:05:11;97624.09;;;24.53;55.25
36190;BME280;22232;50.914;13.858;2023-05-22T12:07:40;97626.25;;;24.12;57.83
36190;BME280;22232;50.914;13.858;2023-05-22T12:10:08;97614.19;;;24.31;61.91
36190;BME280;22232;50.914;13.858;2023-05-22T12:12:37;97618.03;;;24.47;61.24
36190;BME280;22232;50.914;13.858;2023-05-22T12:15:06;97613.28;;;24.73;57.52
36190;BME280;22232;50.914;13.858;2023-05-22T12:17:37;97615.25;;;24.94;52.02
36190;BME280;22232;50.914;13.858;2023-05-22T12:20:06;97613.88;;;24.79;52.64
36190;BME280;22232;50.914;13.858;2023-05-22T12:22:42;97612.28;;;24.78;53.10
36190;BME280;22232;50.914;13.858;2023-05-22T12:25:13;97619.34;;;24.79;52.17
36190;BME280;22232;50.914;13.858;2023-05-22T12:27:43;97609.09;;;24.76;51.99
36190;BME280;22232;50.914;13.858;2023-05-22T12:30:12;97611.91;;;24.88;52.05
36190;BME280;22232;50.914;13.858;2023-05-22T12:32:46;97603.03;;;25.00;53.52
36190;BME280;22232;50.914;13.858;2023-05-22T12:35:15;97604.56;;;24.80;52.12
36190;BME280;22232;50.914;13.858;2023-05-22T12:37:47;97597.72;;;25.04;54.01
36190;BME280;22232;50.914;13.858;2023-05-22T12:40:16;97597.25;;;25.52;52.30
36190;BME280;22232;50.914;13.858;2023-05-22T12:42:44;97602.00;;;25.13;51.05
36190;BME280;22232;50.914;13.858;2023-05-22T12:45:12;97608.59;;;24.74;53.29
36190;BME280;22232;50.914;13.858;2023-05-22T12:47:40;97599.63;;;24.73;50.99
36190;BME280;22232;50.914;13.858;2023-05-22T12:50:08;97601.41;;;25.08;55.64
36190;BME280;22232;50.914;13.858;2023-05-22T12:52:35;97598.66;;;24.78;54.28
36190;BME280;22232;50.914;13.858;2023-05-22T12:55:03;97595.22;;;24.90;61.93
36190;BME280;22232;50.914;13.858;2023-05-22T12:57:31;97595.59;;;25.09;58.58
36190;BME280;22232;50.914;13.858;2023-05-22T12:59:58;97584.13;;;25.25;56.71
36190;BME280;22232;50.914;13.858;2023-05-22T13:02:26;97580.13;;;25.22;54.39
36190;BME280;22232;50.914;13.858;2023-05-22T13:04:54;97598.19;;;25.06;55.08
36190;BME280;22232;50.914;13.858;2023-05-22T13:07:21;97587.97;;;24.94;59.54
36190;BME280;22232;50.914;13.858;2023-05-22T13:09:49;97592.06;;;24.79;57.85
36190;BME280;22232;50.914;13.858;2023-05-22T13:12:16;97581.22;;;24.62;57.52
36190;BME280;22232;50.914;13.858;2023-05-22T13:14:45;97596.03;;;24.52;60.34
36190;BME280;22232;50.914;13.858;2023-05-22T13:17:13;97585.38;;;24.68;64.40
36190;BME280;22232;50.914;13.858;2023-05-22T13:19:40;97581.47;;;24.86;62.97
36190;BME280;22232;50.914;13.858;2023-05-22T13:22:08;97571.94;;;24.63;61.50
36190;BME280;22232;50.914;13.858;2023-05-22T13:24:36;97576.28;;;24.55;62.43